Time;durP1;ratioP1;P1;durP2;ratioP2;P2;SDS_P1;SDS_P2;PMS_P1;PMS_P2;Temp;Humidity;BMP_temperature;BMP_pressure;BME280_temperature;BME280_humidity;BME280_pressure;Samples;Min_cycle;Max_cycle;Signal;HPM_P1;HPM_P2
2023/05/01 00:00:17;;;;;;;0.60;0.60;;;;;;;13.97;53.56;99845.16;4433297;32;33296;-82
2023/05/01 00:02:46;;;;;;;0.60;0.60;;;;;;;14.00;53.42;99845.06;4435853;32;34903;-81
2023/05/01 00:05:15;;;;;;;1.10;0.98;;;;;;;13.75;53.88;99837.00;4438645;32;33519;-81
2023/05/01 00:07:44;;;;;;;0.75;0.75;;;;;;;13.79;53.85;99837.75;4437927;32;33853;-83
2023/05/01 00:10:13;;;;;;;0.80;0.80;;;;;;;13.92;53.30;99836.59;4432577;32;33700;-83
2023/05/01 00:12:42;;;;;;;0.85;0.85;;;;;;;13.82;53.66;99833.34;4430419;32;33952;-82
2023/05/01 00:15:12;;;;;;;0.68;0.68;;;;;;;13.76;53.74;99836.09;4436542;32;33904;-82
2023/05/01 00:17:41;;;;;;;0.60;0.60;;;;;;;13.74;53.38;99835.25;4442925;32;32946;-83
2023/05/01 00:20:11;;;;;;;0.50;0.50;;;;;;;13.86;53.31;99832.34;4441883;32;33589;-83
2023/05/01 00:22:39;;;;;;;0.75;0.75;;;;;;;13.81;53.48;99833.37;4434670;32;34653;-80
2023/05/01 00:25:09;;;;;;;0.70;0.70;;;;;;;13.71;53.89;99827.50;4439217;32;32635;-82
2023/05/01 00:27:38;;;;;;;1.12;1.02;;;;;;;13.73;53.58;99827.50;4440146;32;33999;-82
2023/05/01 00:30:08;;;;;;;0.60;0.60;;;;;;;13.68;53.75;99829.34;4448638;32;33470;-82
2023/05/01 00:32:38;;;;;;;0.70;0.70;;;;;;;13.70;53.55;99832.75;4430847;32;34057;-81
2023/05/01 00:35:08;;;;;;;0.65;0.65;;;;;;;13.52;53.95;99828.84;4430458;32;32015;-82
2023/05/01 00:37:37;;;;;;;0.60;0.60;;;;;;;13.45;53.92;99831.56;4433604;32;34069;-80
2023/05/01 00:40:07;;;;;;;1.37;0.73;;;;;;;13.55;53.74;99831.38;4437206;32;33820;-83
2023/05/01 00:42:40;;;;;;;0.60;0.60;;;;;;;13.73;53.43;99830.09;4439626;32;33531;-82
2023/05/01 00:45:10;;;;;;;0.60;0.60;;;;;;;13.55;53.96;99834.81;4436080;32;34384;-82
2023/05/01 00:47:40;;;;;;;0.60;0.60;;;;;;;13.59;53.94;99835.63;4438377;32;34038;-81
2023/05/01 00:50:10;;;;;;;0.80;0.80;;;;;;;13.65;53.78;99836.34;4446719;32;33129;-81
2023/05/01 00:52:39;;;;;;;0.60;0.60;;;;;;;13.55;54.07;99839.19;4446613;32;34341;-83
2023/05/01 00:55:08;;;;;;;1.65;1.55;;;;;;;13.52;54.15;99832.31;4445040;32;33504;-82
2023/05/01 00:57:37;;;;;;;0.85;0.80;;;;;;;13.58;53.78;99834.78;4431542;32;33700;-82
2023/05/01 01:00:10;;;;;;;0.57;0.57;;;;;;;13.58;53.72;99834.78;4434030;32;34107;-81
2023/05/01 01:02:40;;;;;;;0.70;0.70;;;;;;;13.35;54.29;99835.28;4441744;32;33807;-81
2023/05/01 01:05:10;;;;;;;0.60;0.60;;;;;;;13.47;54.02;99831.56;4445968;32;33596;-82
2023/05/01 01:07:42;;;;;;;1.15;1.15;;;;;;;13.27;54.77;99833.72;4438672;32;33667;-83
2023/05/01 01:10:19;;;;;;;0.65;0.65;;;;;;;13.39;54.29;99836.09;4433125;32;34101;-83
2023/05/01 01:12:54;;;;;;;0.60;0.60;;;;;;;13.39;54.16;99834.34;4443834;32;33770;-82
2023/05/01 01:15:30;;;;;;;0.60;0.60;;;;;;;13.49;53.39;99821.94;4451131;32;33891;-85
2023/05/01 01:18:08;;;;;;;0.62;0.62;;;;;;;13.45;53.68;99836.78;4444906;32;33899;-83
2023/05/01 01:20:39;;;;;;;1.00;1.00;;;;;;;13.48;53.47;99830.66;4433634;32;33556;-82
2023/05/01 01:23:43;;;;;;;0.70;0.70;;;;;;;13.32;53.49;99829.31;4438204;32;34144;-83
2023/05/01 01:26:37;;;;;;;0.60;0.60;;;;;;;13.32;53.39;99824.94;4394163;32;34823;-82
2023/05/01 01:29:44;;;;;;;0.80;0.80;;;;;;;13.32;53.53;99826.69;4383961;32;34347;-82
2023/05/01 01:32:30;;;;;;;0.70;0.70;;;;;;;13.23;53.85;99823.34;4386021;32;33664;-82
2023/05/01 01:35:03;;;;;;;0.62;0.62;;;;;;;13.31;53.66;99822.34;4402429;32;33727;-81
2023/05/01 01:37:41;;;;;;;0.62;0.62;;;;;;;13.21;54.01;99824.28;4402561;32;33004;-82
2023/05/01 01:40:13;;;;;;;0.70;0.70;;;;;;;13.23;54.14;99822.50;4397429;32;34640;-82
2023/05/01 01:42:45;;;;;;;2.08;1.00;;;;;;;13.24;53.93;99819.88;4396725;32;34941;-82
2023/05/01 01:45:19;;;;;;;0.77;0.77;;;;;;;13.27;53.52;99821.59;4382632;32;35898;-83
2023/05/01 01:47:48;;;;;;;1.33;1.23;;;;;;;13.20;53.89;99823.44;4390215;32;33578;-82
2023/05/01 01:50:20;;;;;;;0.70;0.70;;;;;;;13.34;53.62;99824.91;4397980;32;33752;-83
2023/05/01 01:52:50;;;;;;;0.70;0.70;;;;;;;13.33;54.06;99820.56;4397561;32;34246;-82
2023/05/01 01:55:22;;;;;;;0.95;0.90;;;;;;;13.29;53.94;99821.53;4397534;32;32996;-81
2023/05/01 01:57:52;;;;;;;0.85;0.85;;;;;;;13.36;53.75;99823.09;4396378;32;33158;-81
2023/05/01 02:00:22;;;;;;;0.90;0.90;;;;;;;13.19;54.30;99819.13;4399110;32;34114;-83
2023/05/01 02:02:52;;;;;;;0.80;0.80;;;;;;;13.47;53.43;99820.28;4419626;32;34037;-83
2023/05/01 02:05:25;;;;;;;0.70;0.70;;;;;;;13.46;54.11;99824.63;4435706;32;33897;-82
2023/05/01 02:07:56;;;;;;;0.60;0.60;;;;;;;13.41;54.42;99826.50;4435461;32;34268;-83
2023/05/01 02:10:26;;;;;;;0.70;0.70;;;;;;;13.28;55.04;99825.87;4435229;32;33007;-82
2023/05/01 02:12:55;;;;;;;0.80;0.80;;;;;;;13.48;54.90;99828.03;4449611;32;34005;-81
2023/05/01 02:15:24;;;;;;;0.98;0.98;;;;;;;13.66;54.57;99819.81;4444678;32;34735;-82
2023/05/01 02:17:53;;;;;;;0.60;0.60;;;;;;;13.70;54.80;99817.13;4444594;32;34808;-82
2023/05/01 02:20:24;;;;;;;0.70;0.70;;;;;;;13.54;55.29;99819.25;4445032;32;34695;-82
2023/05/01 02:22:54;;;;;;;0.70;0.70;;;;;;;13.69;55.09;99818.03;4450725;32;33469;-82
2023/05/01 02:25:26;;;;;;;0.60;0.60;;;;;;;13.68;55.08;99824.16;4436973;32;34916;-83
2023/05/01 02:28:03;;;;;;;0.60;0.60;;;;;;;13.88;54.34;99820.13;4430125;32;33250;-82
2023/05/01 02:30:32;;;;;;;0.60;0.60;;;;;;;13.83;54.26;99815.94;4430010;32;33679;-81
2023/05/01 02:33:00;;;;;;;0.70;0.70;;;;;;;14.03;54.22;99818.91;4429460;32;33695;-81
2023/05/01 02:35:31;;;;;;;0.60;0.60;;;;;;;13.85;55.05;99814.16;4435076;32;33621;-83
2023/05/01 02:37:59;;;;;;;0.70;0.70;;;;;;;13.64;55.51;99816.38;4436085;32;33385;-82
2023/05/01 02:40:28;;;;;;;0.70;0.70;;;;;;;13.29;56.23;99818.91;4433765;32;34379;-82
2023/05/01 02:42:57;;;;;;;0.60;0.60;;;;;;;13.71;55.30;99814.47;4445211;32;34493;-81
2023/05/01 02:45:27;;;;;;;0.95;0.95;;;;;;;13.49;55.09;99819.34;4450373;32;34705;-81
2023/05/01 02:47:58;;;;;;;0.70;0.70;;;;;;;13.58;55.13;99824.34;4445616;32;32940;-82
2023/05/01 02:50:28;;;;;;;1.02;0.73;;;;;;;13.92;53.80;99820.94;4445266;32;33785;-82
2023/05/01 02:52:58;;;;;;;0.60;0.60;;;;;;;14.02;53.50;99821.56;4444637;32;34591;-82
2023/05/01 02:55:28;;;;;;;;;;;;;;;14.17;53.03;99818.56;4438659;32;34757;-82
2023/05/01 02:57:58;;;;;;;0.70;0.70;;;;;;;14.12;53.52;99823.03;4435043;32;34222;-82
2023/05/01 03:00:27;;;;;;;0.60;0.60;;;;;;;13.94;54.09;99826.09;4429815;32;33180;-83
2023/05/01 03:02:57;;;;;;;0.70;0.70;;;;;;;14.02;54.07;99825.03;4429773;32;33505;-83
2023/05/01 03:05:25;;;;;;;0.80;0.80;;;;;;;14.17;53.58;99830.75;4429741;32;34156;-83
2023/05/01 03:07:54;;;;;;;0.73;0.60;;;;;;;14.28;53.33;99842.63;4435188;32;33178;-81
2023/05/01 03:10:24;;;;;;;0.70;0.70;;;;;;;14.24;53.33;99832.31;4430992;32;33511;-82
2023/05/01 03:12:53;;;;;;;0.70;0.70;;;;;;;14.20;53.46;99831.50;4442176;32;35977;-83
2023/05/01 03:15:22;;;;;;;0.73;0.73;;;;;;;14.31;52.78;99839.06;4429171;32;34242;-82
2023/05/01 03:17:51;;;;;;;1.35;1.25;;;;;;;14.22;53.13;99832.31;4434793;32;33410;-83
2023/05/01 03:20:20;;;;;;;0.95;0.90;;;;;;;14.30;53.28;99838.22;4433159;32;34827;-83
2023/05/01 03:22:49;;;;;;;0.60;0.60;;;;;;;14.33;53.32;99839.00;4429742;32;34041;-81
2023/05/01 03:25:18;;;;;;;1.40;1.33;;;;;;;14.25;53.29;99841.81;4429494;32;34677;-83
2023/05/01 03:27:49;;;;;;;1.00;1.00;;;;;;;14.14;53.35;99843.88;4429482;32;34076;-81
2023/05/01 03:30:18;;;;;;;0.60;0.60;;;;;;;14.06;53.46;99842.31;4435222;32;32974;-82
2023/05/01 03:32:47;;;;;;;0.68;0.68;;;;;;;13.94;53.53;99837.41;4431847;32;34024;-82
2023/05/01 03:35:16;;;;;;;0.68;0.68;;;;;;;14.15;52.89;99843.81;4432964;32;33758;-82
2023/05/01 03:37:45;;;;;;;0.60;0.60;;;;;;;14.02;52.53;99845.03;4431518;32;34060;-82
2023/05/01 03:40:15;;;;;;;0.50;0.50;;;;;;;13.91;52.76;99840.06;4437041;32;32824;-82
2023/05/01 03:42:55;;;;;;;0.60;0.60;;;;;;;13.70;52.73;99844.06;4451916;32;33275;-82
2023/05/01 03:45:24;;;;;;;0.60;0.60;;;;;;;13.72;53.37;99849.22;4443282;32;35166;-83
2023/05/01 03:47:55;;;;;;;0.60;0.60;;;;;;;13.66;53.12;99845.03;4447090;32;33260;-83
2023/05/01 03:50:24;;;;;;;0.60;0.60;;;;;;;13.83;52.60;99839.41;4446643;32;33073;-83
2023/05/01 03:52:56;;;;;;;0.80;0.80;;;;;;;13.61;53.75;99842.53;4451900;32;34743;-83
2023/05/01 03:55:25;;;;;;;0.60;0.60;;;;;;;13.83;53.27;99839.41;4446282;32;34868;-82
2023/05/01 03:57:56;;;;;;;0.80;0.70;;;;;;;13.90;52.77;99840.97;4447044;32;33945;-83
2023/05/01 04:00:24;;;;;;;0.60;0.60;;;;;;;13.80;53.28;99837.72;4446516;32;34071;-81
2023/05/01 04:03:01;;;;;;;1.12;1.02;;;;;;;13.82;53.39;99842.88;4442271;32;34512;-83
2023/05/01 04:05:30;;;;;;;0.68;0.68;;;;;;;13.61;53.80;99845.12;4453541;32;34130;-82
2023/05/01 04:08:03;;;;;;;1.65;1.55;;;;;;;13.79;53.11;99843.81;4446888;32;34052;-82
2023/05/01 04:10:32;;;;;;;1.45;1.35;;;;;;;13.57;53.56;99846.06;4460830;32;32859;-82
2023/05/01 04:13:02;;;;;;;0.70;0.70;;;;;;;13.79;53.29;99843.81;4447828;32;33871;-82
2023/05/01 04:15:31;;;;;;;0.57;0.57;;;;;;;13.59;53.89;99848.66;4451875;32;33952;-81
2023/05/01 04:18:00;;;;;;;0.68;0.68;;;;;;;13.81;52.94;99835.97;4447111;32;34323;-82
2023/05/01 04:20:30;;;;;;;1.20;1.10;;;;;;;13.89;53.16;99839.25;4442571;32;88601;-82
2023/05/01 04:22:59;;;;;;;0.70;0.70;;;;;;;14.22;52.29;99841.91;4446342;32;34299;-82
2023/05/01 04:25:28;;;;;;;1.12;1.08;;;;;;;14.15;52.46;99842.97;4443625;32;34089;-81
2023/05/01 04:27:57;;;;;;;0.80;0.80;;;;;;;14.04;51.67;99846.72;4447985;32;33434;-82
2023/05/01 04:30:27;;;;;;;1.23;1.20;;;;;;;14.11;51.92;99844.81;4441968;32;35184;-82
2023/05/01 04:32:56;;;;;;;1.73;0.98;;;;;;;14.23;52.43;99848.84;4436240;32;33351;-83
2023/05/01 04:35:25;;;;;;;0.73;0.73;;;;;;;14.73;51.42;99846.66;4435508;32;33981;-83
2023/05/01 04:37:55;;;;;;;0.50;0.50;;;;;;;15.72;48.95;99852.50;4441500;32;34617;-83
2023/05/01 04:40:23;;;;;;;0.60;0.60;;;;;;;16.35;46.87;99856.50;4438359;32;31760;-83
2023/05/01 04:42:52;;;;;;;0.50;0.50;;;;;;;17.08;44.82;99852.19;4429645;32;33379;-82
2023/05/01 04:45:21;;;;;;;0.95;0.95;;;;;;;17.46;43.94;99853.34;4430546;32;32409;-83
2023/05/01 04:47:51;;;;;;;4.70;2.70;;;;;;;17.17;44.10;99853.63;4447573;32;33909;-82
2023/05/01 04:50:22;;;;;;;0.98;0.75;;;;;;;18.02;41.85;99856.41;4430527;32;33477;-83
2023/05/01 04:52:51;;;;;;;0.60;0.60;;;;;;;18.08;41.56;99864.06;4430302;32;33208;-82
2023/05/01 04:55:20;;;;;;;0.52;0.52;;;;;;;18.42;40.55;99862.66;4430157;32;34151;-84
2023/05/01 04:57:51;;;;;;;0.65;0.65;;;;;;;17.94;41.08;99856.75;4433795;32;33977;-83
2023/05/01 05:00:20;;;;;;;0.50;0.50;;;;;;;18.25;40.99;99858.09;4438360;32;33531;-83
2023/05/01 05:02:51;;;;;;;0.40;0.40;;;;;;;18.59;40.52;99857.50;4438092;32;34319;-82
2023/05/01 05:05:20;;;;;;;0.40;0.40;;;;;;;18.89;39.25;99865.84;4436513;32;33325;-82
2023/05/01 05:07:49;;;;;;;0.52;0.52;;;;;;;19.53;37.94;99867.28;4435151;32;34333;-83
2023/05/01 05:10:21;;;;;;;0.65;0.52;;;;;;;19.04;38.66;99861.69;4438297;32;33839;-82
2023/05/01 05:12:52;;;;;;;0.40;0.40;;;;;;;18.81;38.63;99859.22;4442286;32;34765;-82
2023/05/01 05:15:20;;;;;;;0.60;0.60;;;;;;;18.34;40.00;99861.19;4431114;32;34868;-83
2023/05/01 05:17:49;;;;;;;0.40;0.40;;;;;;;17.31;42.19;99866.22;4435646;32;33114;-83
2023/05/01 05:20:20;;;;;;;0.40;0.40;;;;;;;18.12;40.13;99863.00;4433753;32;33551;-84
2023/05/01 05:22:48;;;;;;;0.40;0.40;;;;;;;17.69;41.49;99862.09;4441752;32;35731;-82
2023/05/01 05:25:18;;;;;;;1.37;0.60;;;;;;;16.67;42.89;99869.38;4438816;32;34223;-83
2023/05/01 05:27:47;;;;;;;0.85;0.85;;;;;;;16.64;43.03;99865.97;4436908;32;34210;-82
2023/05/01 05:30:15;;;;;;;0.40;0.40;;;;;;;16.77;43.30;99868.16;4445017;32;33933;-83
2023/05/01 05:32:47;;;;;;;0.68;0.65;;;;;;;16.67;43.31;99870.22;4442500;32;33779;-83
2023/05/01 05:35:15;;;;;;;0.43;0.43;;;;;;;17.22;42.19;99870.87;4446171;32;34713;-84
2023/05/01 05:37:49;;;;;;;0.40;0.40;;;;;;;17.05;42.48;99876.75;4435046;32;33965;-82
2023/05/01 05:40:18;;;;;;;0.40;0.40;;;;;;;16.76;43.04;99876.94;4432004;32;34573;-83
2023/05/01 05:42:47;;;;;;;0.50;0.50;;;;;;;16.09;43.44;99872.22;4444307;32;34511;-84
2023/05/01 05:45:17;;;;;;;0.60;0.60;;;;;;;16.53;42.68;99875.12;4443674;32;33958;-82
2023/05/01 05:47:45;;;;;;;0.73;0.70;;;;;;;16.68;42.50;99881.59;4431956;32;33164;-83
2023/05/01 05:50:15;;;;;;;0.57;0.57;;;;;;;16.29;43.13;99880.28;4446289;32;33893;-85
2023/05/01 05:52:44;;;;;;;0.43;0.43;;;;;;;15.54;43.04;99880.06;4445393;32;33647;-83
2023/05/01 05:55:15;;;;;;;0.60;0.60;;;;;;;15.00;44.23;99885.97;4460077;32;34243;-85
2023/05/01 05:57:46;;;;;;;1.55;1.45;;;;;;;15.22;44.57;99892.31;4449520;32;34121;-82
2023/05/01 06:00:16;;;;;;;0.60;0.60;;;;;;;15.30;44.59;99885.09;4446217;32;33740;-84
2023/05/01 06:02:45;;;;;;;0.60;0.60;;;;;;;15.53;45.16;99884.41;4435670;32;32888;-84
2023/05/01 06:05:14;;;;;;;0.50;0.50;;;;;;;15.36;46.31;99890.12;4430800;32;34392;-83
2023/05/01 06:07:43;;;;;;;0.70;0.70;;;;;;;15.07;46.27;99892.75;4446014;32;33374;-83
2023/05/01 06:10:13;;;;;;;0.70;0.70;;;;;;;14.85;46.86;99885.50;4442850;32;33140;-82
2023/05/01 06:12:42;;;;;;;0.70;0.70;;;;;;;14.82;47.47;99888.22;4458581;32;33170;-82
2023/05/01 06:15:17;;;;;;;0.60;0.60;;;;;;;14.70;46.30;99889.41;4461572;32;34351;-83
2023/05/01 06:17:46;;;;;;;0.73;0.73;;;;;;;14.51;45.55;99896.81;4464940;32;31955;-82
2023/05/01 06:20:15;;;;;;;0.50;0.50;;;;;;;14.85;45.63;99890.72;4433337;32;33573;-82
2023/05/01 06:22:45;;;;;;;1.12;1.12;;;;;;;15.53;43.77;99904.47;4429667;32;33908;-83
2023/05/01 06:25:16;;;;;;;1.15;0.95;;;;;;;14.56;44.35;99894.13;4431249;32;33995;-81
2023/05/01 06:27:45;;;;;;;0.60;0.60;;;;;;;14.38;43.76;99899.81;4435892;32;33123;-81
2023/05/01 06:30:13;;;;;;;1.05;1.02;;;;;;;14.52;43.53;99901.16;4437904;32;34370;-82
2023/05/01 06:32:43;;;;;;;0.55;0.55;;;;;;;15.34;43.45;99897.19;4430594;32;33635;-82
2023/05/01 06:35:12;;;;;;;0.50;0.50;;;;;;;14.59;41.93;99908.84;4438639;32;33183;-81
2023/05/01 06:37:41;;;;;;;1.42;1.33;;;;;;;15.00;43.51;99909.50;4430021;32;33496;-82
2023/05/01 06:40:11;;;;;;;0.60;0.60;;;;;;;14.86;42.25;99902.03;4435255;32;34583;-83
2023/05/01 06:42:41;;;;;;;0.50;0.50;;;;;;;15.24;42.41;99903.56;4431503;32;34079;-82
2023/05/01 06:45:10;;;;;;;0.50;0.50;;;;;;;14.94;41.96;99908.75;4444391;32;33234;-83
2023/05/01 06:47:39;;;;;;;1.42;1.33;;;;;;;15.06;40.83;99910.19;4444189;32;33134;-81
2023/05/01 06:50:10;;;;;;;0.50;0.50;;;;;;;15.13;39.85;99905.66;4446085;32;33593;-82
2023/05/01 06:52:40;;;;;;;0.50;0.50;;;;;;;15.33;38.95;99907.69;4443410;32;33580;-81
2023/05/01 06:55:09;;;;;;;0.40;0.40;;;;;;;15.19;39.19;99905.47;4436372;32;34899;-82
2023/05/01 06:57:39;;;;;;;0.70;0.70;;;;;;;15.04;38.62;99900.69;4435142;32;33260;-82
2023/05/01 07:00:10;;;;;;;0.50;0.50;;;;;;;15.18;38.66;99909.00;4437447;32;34215;-82
2023/05/01 07:02:39;;;;;;;0.50;0.50;;;;;;;15.63;38.30;99902.44;4442492;32;33472;-81
2023/05/01 07:05:09;;;;;;;1.25;1.17;;;;;;;15.61;37.64;99907.72;4435687;32;33519;-83
2023/05/01 07:07:37;;;;;;;0.50;0.50;;;;;;;15.81;36.86;99901.06;4431080;32;33253;-82
2023/05/01 07:10:12;;;;;;;0.52;0.52;;;;;;;15.91;37.24;99902.47;4436103;32;34056;-84
2023/05/01 07:12:42;;;;;;;0.50;0.50;;;;;;;16.24;36.58;99907.50;4446379;32;34068;-81
2023/05/01 07:15:13;;;;;;;0.50;0.50;;;;;;;16.17;35.88;99907.72;4444364;32;34011;-83
2023/05/01 07:17:42;;;;;;;0.50;0.50;;;;;;;15.45;36.62;99902.09;4437638;32;34409;-82
2023/05/01 07:20:11;;;;;;;0.60;0.60;;;;;;;15.48;36.69;99911.59;4435130;32;33951;-82
2023/05/01 07:22:40;;;;;;;0.50;0.50;;;;;;;15.48;36.69;99917.69;4432726;32;34415;-82
2023/05/01 07:25:09;;;;;;;0.40;0.40;;;;;;;15.51;36.16;99911.50;4441318;32;34435;-82
2023/05/01 07:27:38;;;;;;;0.50;0.50;;;;;;;16.05;36.11;99905.50;4435125;32;34381;-82
2023/05/01 07:30:08;;;;;;;0.43;0.43;;;;;;;15.75;35.45;99905.59;4431306;32;34339;-82
2023/05/01 07:32:38;;;;;;;0.40;0.40;;;;;;;15.48;35.38;99908.97;4430491;32;33285;-82
2023/05/01 07:35:08;;;;;;;0.50;0.50;;;;;;;15.89;34.93;99902.50;4434267;32;33742;-81
2023/05/01 07:37:37;;;;;;;0.52;0.52;;;;;;;16.31;34.14;99907.28;4441731;32;33215;-81
2023/05/01 07:40:07;;;;;;;0.50;0.50;;;;;;;16.90;35.00;99911.38;4429238;32;34638;-83
2023/05/01 07:42:36;;;;;;;0.57;0.57;;;;;;;17.21;35.26;99910.28;4431751;32;33541;-82
2023/05/01 07:45:06;;;;;;;0.40;0.40;;;;;;;17.14;34.37;99906.16;4439150;32;34214;-83
2023/05/01 07:47:35;;;;;;;0.50;0.50;;;;;;;16.44;34.51;99912.94;4435889;32;34396;-82
2023/05/01 07:50:10;;;;;;;0.50;0.50;;;;;;;16.57;34.07;99919.47;4437240;32;34759;-81
2023/05/01 07:52:39;;;;;;;0.40;0.40;;;;;;;16.76;33.36;99914.44;4433067;32;34133;-82
2023/05/01 07:55:09;;;;;;;0.40;0.40;;;;;;;16.59;33.45;99916.81;4437160;32;33758;-82
2023/05/01 07:57:38;;;;;;;0.50;0.50;;;;;;;16.77;34.06;99903.09;4447429;32;33919;-83
2023/05/01 08:00:08;;;;;;;0.40;0.40;;;;;;;16.28;33.87;99914.34;4442896;32;33760;-82
2023/05/01 08:02:40;;;;;;;0.57;0.57;;;;;;;16.71;34.23;99915.53;4429205;32;34631;-81
2023/05/01 08:05:14;;;;;;;0.40;0.40;;;;;;;17.28;34.18;99915.22;4429220;32;36204;-82
2023/05/01 08:07:42;;;;;;;0.40;0.40;;;;;;;16.88;34.16;99910.56;4443934;32;33986;-82
2023/05/01 08:10:11;;;;;;;0.45;0.43;;;;;;;16.64;33.22;99909.63;4440359;32;33765;-83
2023/05/01 08:12:40;;;;;;;0.30;0.30;;;;;;;17.22;34.55;99912.81;4437106;32;33934;-83
2023/05/01 08:15:09;;;;;;;0.57;0.57;;;;;;;17.20;33.92;99917.28;4436535;32;34537;-83
2023/05/01 08:17:38;;;;;;;0.40;0.40;;;;;;;16.90;34.11;99914.00;4434785;32;33328;-83
2023/05/01 08:20:08;;;;;;;0.40;0.40;;;;;;;17.01;34.23;99917.09;4436974;32;34306;-82
2023/05/01 08:22:39;;;;;;;1.05;0.90;;;;;;;16.81;34.38;99906.47;4437504;32;33719;-83
2023/05/01 08:25:08;;;;;;;0.40;0.40;;;;;;;16.90;33.45;99913.16;4429109;32;34074;-82
2023/05/01 08:27:37;;;;;;;0.40;0.40;;;;;;;16.87;33.05;99911.50;4436602;32;33224;-82
2023/05/01 08:30:07;;;;;;;0.40;0.40;;;;;;;16.87;33.99;99910.66;4430142;32;33410;-82
2023/05/01 08:32:36;;;;;;;1.13;1.03;;;;;;;16.75;34.20;99918.00;4439987;32;34048;-83
2023/05/01 08:35:05;;;;;;;0.40;0.40;;;;;;;17.02;34.28;99917.97;4432058;32;32866;-83
2023/05/01 08:37:34;;;;;;;0.40;0.40;;;;;;;17.45;33.32;99911.13;4430974;32;33934;-82
2023/05/01 08:40:07;;;;;;;0.40;0.40;;;;;;;17.73;33.68;99910.06;4432826;32;33458;-83
2023/05/01 08:42:37;;;;;;;0.43;0.43;;;;;;;16.78;34.31;99911.78;4440040;32;34475;-84
2023/05/01 08:45:08;;;;;;;0.40;0.40;;;;;;;17.25;33.96;99907.50;4435161;32;33838;-82
2023/05/01 08:47:38;;;;;;;0.50;0.50;;;;;;;17.24;33.34;99912.78;4433666;32;35078;-82
2023/05/01 08:50:13;;;;;;;0.30;0.30;;;;;;;17.48;33.43;99911.00;4430534;32;33754;-83
2023/05/01 08:52:42;;;;;;;1.83;1.35;;;;;;;18.04;33.63;99914.97;4432243;32;34154;-83
2023/05/01 08:55:14;;;;;;;0.35;0.35;;;;;;;18.37;32.63;99906.66;4437212;32;34851;-82
2023/05/01 08:57:45;;;;;;;0.93;0.55;;;;;;;18.15;32.04;99911.94;4439258;32;33245;-82
2023/05/01 09:00:18;;;;;;;0.30;0.30;;;;;;;18.31;33.23;99911.25;4446315;32;33475;-82
2023/05/01 09:02:48;;;;;;;1.05;1.05;;;;;;;17.87;33.29;99910.41;4432639;32;33470;-84
2023/05/01 09:05:18;;;;;;;1.93;1.80;;;;;;;17.42;33.48;99917.34;4438695;32;33178;-83
2023/05/01 09:07:48;;;;;;;0.35;0.35;;;;;;;17.37;33.78;99914.06;4435465;32;34309;-81
2023/05/01 09:10:18;;;;;;;0.37;0.37;;;;;;;17.58;33.78;99928.09;4433286;32;33574;-82
2023/05/01 09:12:50;;;;;;;0.40;0.40;;;;;;;17.94;33.24;99911.88;4432983;32;34396;-82
2023/05/01 09:15:19;;;;;;;0.50;0.50;;;;;;;17.79;32.69;99909.81;4430851;32;33863;-82
2023/05/01 09:17:48;;;;;;;0.43;0.43;;;;;;;17.84;32.60;99903.50;4435703;32;33425;-82
2023/05/01 09:20:19;;;;;;;0.30;0.30;;;;;;;17.77;33.88;99898.53;4435907;32;34437;-82
2023/05/01 09:22:48;;;;;;;0.57;0.57;;;;;;;18.59;32.73;99896.06;4445990;32;33778;-83
2023/05/01 09:25:18;;;;;;;0.30;0.30;;;;;;;18.81;31.71;99899.50;4444698;32;33879;-82
2023/05/01 09:27:47;;;;;;;0.70;0.70;;;;;;;19.50;31.14;99899.03;4430260;32;32734;-82
2023/05/01 09:30:30;;;;;;;0.40;0.40;;;;;;;19.53;31.69;99906.78;4435516;32;33898;-83
2023/05/01 09:33:06;;;;;;;0.50;0.50;;;;;;;19.09;31.53;99901.78;4430829;32;33706;-84
2023/05/01 09:35:51;;;;;;;0.30;0.30;;;;;;;19.73;31.34;99900.59;4430995;32;34769;-82
2023/05/01 09:38:21;;;;;;;0.75;0.52;;;;;;;18.92;30.61;99896.41;4430716;32;34160;-82
2023/05/01 09:40:55;;;;;;;0.30;0.30;;;;;;;19.35;30.18;99899.72;4434332;32;33377;-83
2023/05/01 09:43:28;;;;;;;0.20;0.20;;;;;;;19.39;31.86;99901.28;4435524;32;33474;-83
2023/05/01 09:46:02;;;;;;;0.30;0.30;;;;;;;19.07;31.96;99898.34;4430434;32;34093;-82
2023/05/01 09:48:31;;;;;;;0.40;0.40;;;;;;;19.95;31.61;99897.78;4430159;32;34148;-81
2023/05/01 09:51:24;;;;;;;0.45;0.45;;;;;;;20.33;32.37;99892.41;4430968;32;33080;-83
2023/05/01 09:53:54;;;;;;;0.30;0.30;;;;;;;20.55;31.65;99880.78;4440938;32;34657;-82
2023/05/01 09:56:25;;;;;;;0.28;0.28;;;;;;;20.60;32.20;99882.25;4451109;32;34252;-82
2023/05/01 09:58:55;;;;;;;0.30;0.30;;;;;;;20.83;32.41;99886.34;4445687;32;32856;-83
2023/05/01 10:01:38;;;;;;;0.25;0.25;;;;;;;20.19;31.24;99882.53;4444519;32;32954;-82
2023/05/01 10:04:08;;;;;;;0.20;0.20;;;;;;;20.53;31.21;99887.91;4446115;32;33645;-82
2023/05/01 10:06:38;;;;;;;0.20;0.20;;;;;;;20.64;29.55;99870.63;4445856;32;34399;-83
2023/05/01 10:09:15;;;;;;;0.20;0.20;;;;;;;20.77;28.26;99864.72;4446778;32;33506;-82
2023/05/01 10:11:57;;;;;;;2.92;2.17;;;;;;;20.13;29.61;99868.84;4436132;32;33714;-82
2023/05/01 10:14:28;;;;;;;0.40;0.37;;;;;;;20.18;30.31;99870.31;4435517;32;33510;-83
2023/05/01 10:16:58;;;;;;;0.30;0.30;;;;;;;19.99;30.34;99857.22;4436318;32;33607;-83
2023/05/01 10:19:27;;;;;;;0.20;0.20;;;;;;;20.38;29.24;99863.19;4429804;32;33525;-82
2023/05/01 10:21:55;;;;;;;0.30;0.30;;;;;;;19.91;29.74;99867.28;4432935;32;33341;-82
2023/05/01 10:24:25;;;;;;;0.30;0.30;;;;;;;19.90;30.22;99864.69;4441891;32;33504;-83
2023/05/01 10:26:55;;;;;;;0.30;0.30;;;;;;;19.81;29.89;99850.19;4439088;32;34525;-82
2023/05/01 10:29:24;;;;;;;0.30;0.30;;;;;;;19.61;30.08;99856.41;4436811;32;32753;-83
2023/05/01 10:31:53;;;;;;;0.50;0.50;;;;;;;20.26;30.70;99843.59;4436444;32;33308;-81
2023/05/01 10:34:23;;;;;;;0.40;0.40;;;;;;;20.12;29.94;99849.53;4450374;32;34584;-83
2023/05/01 10:36:59;;;;;;;0.28;0.28;;;;;;;19.34;30.79;99848.87;4459372;32;35035;-83
2023/05/01 10:39:31;;;;;;;0.30;0.30;;;;;;;20.15;30.36;99844.12;4440779;32;32713;-83
2023/05/01 10:42:05;;;;;;;0.30;0.30;;;;;;;20.19;31.05;99839.56;4443239;32;33585;-83
2023/05/01 10:44:34;;;;;;;0.25;0.25;;;;;;;20.54;29.91;99836.88;4435582;32;33928;-82
2023/05/01 10:47:41;;;;;;;0.68;0.55;;;;;;;20.79;29.62;99844.41;4432387;32;33640;-82
2023/05/01 10:50:11;;;;;;;0.20;0.20;;;;;;;20.89;30.02;99842.97;4438179;32;34226;-82
2023/05/01 10:53:15;;;;;;;0.35;0.35;;;;;;;21.12;29.58;99841.75;4446229;32;34910;-82
2023/05/01 10:55:45;;;;;;;0.20;0.20;;;;;;;21.30;28.45;99835.44;4435079;32;34784;-81
2023/05/01 10:58:54;;;;;;;2.37;0.40;;;;;;;21.63;28.75;99839.81;4434494;32;33560;-82
2023/05/01 11:01:31;;;;;;;0.80;0.80;;;;;;;21.93;30.14;99829.28;4444094;32;33235;-82
2023/05/01 11:04:03;;;;;;;0.20;0.20;;;;;;;22.41;29.11;99829.16;4450381;32;33954;-83
2023/05/01 11:06:32;;;;;;;0.20;0.20;;;;;;;22.05;28.77;99834.78;4445354;32;34712;-83
2023/05/01 11:09:03;;;;;;;0.25;0.25;;;;;;;22.68;26.80;99828.44;4433313;32;33835;-82
2023/05/01 11:11:49;;;;;;;0.20;0.20;;;;;;;22.38;27.38;99829.34;4433834;32;33283;-83
2023/05/01 11:14:19;;;;;;;0.20;0.20;;;;;;;22.18;27.37;99830.50;4435550;32;33872;-82
2023/05/01 11:16:48;;;;;;;0.20;0.20;;;;;;;21.82;27.63;99826.44;4446419;32;35571;-83
2023/05/01 11:19:47;;;;;;;0.47;0.47;;;;;;;22.01;28.21;99827.97;4441395;32;33649;-83
2023/05/01 11:22:17;;;;;;;0.55;0.55;;;;;;;21.87;29.64;99823.53;4438063;32;33502;-83
2023/05/01 11:24:46;;;;;;;0.30;0.30;;;;;;;22.07;28.34;99817.91;4430965;32;34413;-82
2023/05/01 11:27:16;;;;;;;0.30;0.30;;;;;;;22.39;27.64;99809.06;4433073;32;33477;-84
2023/05/01 11:29:50;;;;;;;0.20;0.20;;;;;;;22.06;27.74;99810.06;4432963;32;33292;-82
2023/05/01 11:32:25;;;;;;;0.28;0.28;;;;;;;22.30;27.96;99811.31;4435961;32;34359;-83
2023/05/01 11:34:54;;;;;;;0.60;0.32;;;;;;;22.11;27.26;99802.75;4439278;32;34374;-83
2023/05/01 11:37:41;;;;;;;0.20;0.20;;;;;;;21.54;28.63;99806.03;4435788;32;33524;-81
2023/05/01 11:40:21;;;;;;;0.20;0.20;;;;;;;21.83;28.40;99799.06;4427753;32;33707;-82
2023/05/01 11:42:50;;;;;;;0.75;0.68;;;;;;;22.13;28.37;99801.72;4437005;32;34243;-81
2023/05/01 11:45:21;;;;;;;0.87;0.50;;;;;;;22.61;27.96;99806.78;4444036;32;33217;-81
2023/05/01 11:47:50;;;;;;;0.20;0.20;;;;;;;22.81;28.69;99810.87;4433705;32;34308;-82
2023/05/01 11:50:20;;;;;;;1.05;0.80;;;;;;;23.08;27.37;99805.69;4429252;32;34737;-81
2023/05/01 11:52:52;;;;;;;0.10;0.10;;;;;;;23.21;28.55;99798.66;4433466;32;33124;-82